Aérodrome :
LOGIN :

S'inscrire | Disclaimer

   EN    FR    IT 

 










Légende :    VFR   VFR Marginal   IFR   IFR Intensif   IFR Très Intensif
Visi : 
Plafond : 
>= 8 km
>= 3000ft
5 à 8 km
1000 à 3000 ft
1500m à 5 km
500 à 1000 ft
800 à 1500m
200 à 500 ft
< 800m
< 200 ft
Symboles :   Orages  Brouillard  Fortes neiges  Fortes précipitations  Vent > 20 kt
SIGMETs :   Divers  Orages  Givrage  Turbulence  Onde Orograph.  Cendres Volcan.






- Altitude de l'aérodrome : 74 ft
- Code IATA : EIN


EHEH - Eindhoven

DERNIER METAR :
  • 221455Z AUTO 23007KT 9999 OVC210 06/03 Q0995 BLU TEMPO SCT015

METARs EXPIRÉS :
  • 221425Z AUTO 23010KT 190V260 9999 OVC210 06/03 Q0995 BLU TEMPO SCT015
  • 221355Z AUTO 22010KT 190V260 9999 SCT016 BKN019 BKN023 07/03 Q0994 WHT TEMPO SCT012
  • 221325Z AUTO 23010KT 190V250 9999 FEW022 OVC210 07/04 Q0994 BLU TEMPO SCT012
  • 221255Z AUTO 22009KT 9999 FEW018 OVC210 06/04 Q0994 BLU TEMPO SCT012 BKN200
  • 221225Z AUTO 22009KT 9999 OVC190 06/03 Q0994 BLU TEMPO SCT012 BKN200

TAF TAF EHEH
Valide du 22 à 12h jusqu'au 23 à 18h UTC


221105Z 2212/2318 22010KT 9999 FEW008 BKN210
BECMG 2218/2221 20005KT
BECMG 2302/2404 SCT015 BKN020
PROB40
TEMPO 2304/2307 3500 RA -SHRASN SCT006 BKN010 SCT015CB
PROB40
TEMPO 2307/2310 SCT008 BKN015
BECMG 2314/2316 BKN020



MET'MAP, la Météo Aéronautique d'un coup d'oeil ! - Copyright ORBIFLY Décembre 2007 - Disclaimer

ORBIFLY MET'MAP TEAM :

Programmation & Développement : Alexandra Zaïnal
Sur une idée originale de : Baudouin d'Aumeries
Assistance à la programmation : Marc-Olivier Méhu
Soutien technique & logistique : Manuel Goepfert

Contact : metmap@orbifly.com




SOURCES & CREDITS :

   NOAA